createdAt,value
2022-10-14T00:01:11.717Z,39.30
2022-10-14T00:03:43.038Z,39.00
2022-10-14T00:06:13.418Z,38.45
2022-10-14T00:08:42.606Z,39.00
2022-10-14T00:11:14.155Z,38.65
2022-10-14T00:13:42.428Z,38.03
2022-10-14T00:16:17.866Z,37.20
2022-10-14T00:18:47.354Z,37.95
2022-10-14T00:21:16.129Z,35.58
2022-10-14T00:23:44.487Z,36.17
2022-10-14T00:26:18.246Z,35.33
2022-10-14T00:28:46.878Z,35.67
2022-10-14T00:31:15.857Z,35.10
2022-10-14T00:33:44.133Z,34.30
2022-10-14T00:36:15.422Z,35.30
2022-10-14T00:38:45.293Z,34.53
2022-10-14T00:41:15.398Z,33.85
2022-10-14T00:43:56.470Z,33.97
2022-10-14T00:46:25.335Z,34.30
2022-10-14T00:48:54.579Z,33.90
2022-10-14T00:51:24.252Z,32.60
2022-10-14T00:53:52.811Z,33.25
2022-10-14T00:56:24.533Z,33.53
2022-10-14T00:58:53.083Z,33.97
2022-10-14T01:01:21.485Z,33.05
2022-10-14T01:03:49.836Z,34.00
2022-10-14T01:06:32.031Z,31.23
2022-10-14T01:09:05.531Z,30.27
2022-10-14T01:11:41.685Z,30.90
2022-10-14T01:14:20.353Z,30.92
2022-10-14T01:16:56.875Z,29.35
2022-10-14T01:20:00.120Z,30.80
2022-10-14T01:22:34.207Z,31.00
2022-10-14T01:25:15.436Z,29.37
2022-10-14T01:28:14.639Z,31.25
2022-10-14T01:30:46.684Z,29.97
2022-10-14T01:33:17.517Z,30.33
2022-10-14T01:35:53.094Z,30.77
2022-10-14T01:38:25.427Z,30.08
2022-10-14T01:40:59.281Z,28.80
2022-10-14T01:43:29.040Z,28.13
2022-10-14T01:46:01.722Z,28.23
2022-10-14T01:48:33.878Z,28.90
2022-10-14T01:51:05.782Z,28.75
2022-10-14T01:53:37.913Z,27.52
2022-10-14T01:56:08.509Z,27.77
2022-10-14T01:58:38.785Z,27.98
2022-10-14T02:01:10.769Z,27.93
2022-10-14T02:03:41.278Z,28.10
2022-10-14T02:06:15.637Z,29.77
2022-10-14T02:08:56.514Z,27.87
2022-10-14T02:11:25.097Z,27.40
2022-10-14T02:14:12.306Z,27.83
2022-10-14T02:16:50.419Z,27.92
2022-10-14T02:19:27.349Z,27.42
2022-10-14T02:21:59.379Z,27.70
2022-10-14T02:24:32.288Z,27.45
2022-10-14T02:27:05.401Z,26.63
2022-10-14T02:29:35.676Z,26.52
2022-10-14T02:32:08.326Z,26.85
2022-10-14T02:34:38.853Z,26.23
2022-10-14T02:37:08.697Z,26.05
2022-10-14T02:39:39.688Z,26.33
2022-10-14T02:42:07.972Z,25.90
2022-10-14T02:44:36.316Z,23.35
2022-10-14T02:47:06.025Z,25.55
2022-10-14T02:49:34.601Z,25.38
2022-10-14T02:52:02.809Z,25.08
2022-10-14T02:54:31.088Z,24.53
2022-10-14T02:56:59.821Z,25.55
2022-10-14T02:59:28.245Z,25.67
2022-10-14T03:01:56.490Z,24.73
2022-10-14T03:04:26.132Z,24.77
2022-10-14T03:06:54.948Z,25.67
2022-10-14T03:09:23.276Z,25.05
2022-10-14T03:11:51.599Z,26.75
2022-10-14T03:14:19.798Z,27.67
2022-10-14T03:16:48.242Z,27.58
2022-10-14T03:19:16.616Z,28.38
2022-10-14T03:21:46.644Z,27.73
2022-10-14T03:24:14.899Z,28.85
2022-10-14T03:26:43.257Z,26.63
2022-10-14T03:29:11.657Z,28.08
2022-10-14T03:31:39.808Z,28.02
2022-10-14T03:34:08.522Z,27.48
2022-10-14T03:36:37.228Z,28.33
2022-10-14T03:39:06.852Z,27.83
2022-10-14T03:41:35.254Z,28.35
2022-10-14T03:44:03.546Z,27.65
2022-10-14T03:46:32.268Z,27.98
2022-10-14T03:49:00.522Z,27.52
2022-10-14T03:51:28.883Z,28.50
2022-10-14T03:53:57.141Z,29.63
2022-10-14T03:56:26.854Z,27.83
2022-10-14T03:58:55.024Z,26.52
2022-10-14T04:01:23.406Z,27.75
2022-10-14T04:03:52.068Z,28.83
2022-10-14T04:06:20.228Z,29.25
2022-10-14T04:08:48.482Z,30.52
2022-10-14T04:11:17.229Z,28.92
2022-10-14T04:13:46.855Z,28.67
2022-10-14T04:16:15.498Z,27.88
2022-10-14T04:18:43.783Z,30.13
2022-10-14T04:21:13.697Z,29.95
2022-10-14T04:23:41.980Z,30.30
2022-10-14T04:26:11.083Z,30.00
2022-10-14T04:28:39.660Z,29.35
2022-10-14T04:31:09.301Z,31.65
2022-10-14T04:33:37.565Z,29.88
2022-10-14T04:36:07.179Z,29.92
2022-10-14T04:38:35.681Z,30.98
2022-10-14T04:41:04.029Z,30.15
2022-10-14T04:43:32.237Z,30.73
2022-10-14T04:46:00.563Z,29.92
2022-10-14T04:48:30.035Z,28.77
2022-10-14T04:50:58.401Z,29.55
2022-10-14T04:53:26.599Z,29.60
2022-10-14T04:55:54.946Z,29.25
2022-10-14T04:58:23.255Z,28.58
2022-10-14T05:00:51.631Z,28.13
2022-10-14T05:03:19.878Z,29.77
2022-10-14T05:05:49.382Z,30.35
2022-10-14T05:08:17.601Z,28.42
2022-10-14T05:10:45.853Z,26.08
2022-10-14T05:13:14.123Z,27.55
2022-10-14T05:15:42.653Z,29.02
2022-10-14T05:18:12.771Z,27.23
2022-10-14T05:20:41.103Z,28.05
2022-10-14T05:23:10.482Z,26.77
2022-10-14T05:25:38.606Z,23.13
2022-10-14T05:28:06.895Z,20.60
2022-10-14T05:30:35.285Z,20.65
2022-10-14T05:33:03.646Z,21.02
2022-10-14T05:35:53.992Z,23.85
2022-10-14T05:38:21.628Z,24.10
2022-10-14T05:40:56.483Z,23.65
2022-10-14T05:43:31.000Z,24.13
2022-10-14T05:46:01.059Z,24.75
2022-10-14T05:48:29.457Z,25.33
2022-10-14T05:51:01.502Z,26.13
2022-10-14T05:53:32.739Z,25.67
2022-10-14T05:56:04.288Z,23.58
2022-10-14T05:58:32.882Z,25.40
2022-10-14T06:01:01.854Z,24.98
2022-10-14T06:03:30.323Z,26.25
2022-10-14T06:05:58.690Z,24.83
2022-10-14T06:08:27.275Z,23.20
2022-10-14T06:10:57.014Z,23.73
2022-10-14T06:13:25.507Z,23.65
2022-10-14T06:15:54.119Z,24.48
2022-10-14T06:18:22.356Z,24.50
2022-10-14T06:20:53.886Z,23.95
2022-10-14T06:23:22.233Z,22.00
2022-10-14T06:25:50.985Z,22.80
2022-10-14T06:28:20.718Z,23.13
2022-10-14T06:30:51.661Z,22.60
2022-10-14T06:33:20.340Z,23.80
2022-10-14T06:35:48.797Z,27.80
2022-10-14T06:38:17.391Z,28.00
2022-10-14T06:40:45.607Z,29.25
2022-10-14T06:43:13.730Z,27.27
2022-10-14T06:45:43.281Z,27.95
2022-10-14T06:48:11.664Z,26.63
2022-10-14T06:50:40.252Z,27.20
2022-10-14T06:53:08.718Z,28.25
2022-10-14T06:55:37.030Z,27.95
2022-10-14T06:58:05.382Z,28.13
2022-10-14T07:00:33.710Z,28.90
2022-10-14T07:03:03.176Z,28.52
2022-10-14T07:05:32.255Z,29.55
2022-10-14T07:10:34.368Z,30.73
2022-10-14T07:13:02.639Z,30.55
2022-10-14T07:15:35.312Z,30.33
2022-10-14T07:18:07.416Z,30.05
2022-10-14T07:20:35.911Z,29.85
2022-10-14T07:23:04.069Z,29.45
2022-10-14T07:25:32.841Z,29.27
2022-10-14T07:28:01.249Z,31.27
2022-10-14T07:30:29.588Z,30.55
2022-10-14T07:32:57.819Z,29.77
2022-10-14T07:35:27.911Z,28.30
2022-10-14T07:37:56.775Z,29.67
2022-10-14T07:40:24.994Z,28.20
2022-10-14T07:42:53.201Z,26.25
2022-10-14T07:45:21.759Z,26.60
2022-10-14T07:47:51.703Z,27.65
2022-10-14T07:50:21.247Z,27.33
2022-10-14T07:52:50.865Z,26.27
2022-10-14T07:55:19.288Z,27.23
2022-10-14T07:57:47.565Z,26.63
2022-10-14T08:00:15.987Z,27.17
2022-10-14T08:02:44.221Z,26.95
2022-10-14T08:05:36.674Z,27.77
2022-10-14T08:08:01.982Z,27.40
2022-10-14T08:10:30.680Z,28.27
2022-10-14T08:12:59.758Z,28.02
2022-10-14T08:15:29.927Z,28.38
2022-10-14T08:17:58.355Z,29.05
2022-10-14T08:20:26.761Z,27.33
2022-10-14T08:22:56.451Z,27.45
2022-10-14T08:25:26.483Z,27.95
2022-10-14T08:27:57.477Z,28.60
2022-10-14T08:30:26.486Z,29.38
2022-10-14T08:32:55.265Z,29.17
2022-10-14T08:35:25.020Z,31.48
2022-10-14T08:37:58.091Z,29.80
2022-10-14T08:40:30.062Z,30.42
2022-10-14T08:43:03.610Z,30.50
2022-10-14T08:45:36.785Z,32.10
2022-10-14T08:48:11.847Z,32.83
2022-10-14T08:50:44.639Z,33.30
2022-10-14T08:53:15.748Z,33.30
2022-10-14T08:55:48.011Z,33.53
2022-10-14T08:58:21.693Z,34.97
2022-10-14T09:00:53.194Z,33.08
2022-10-14T09:03:23.527Z,34.65
2022-10-14T09:05:58.899Z,34.97
2022-10-14T09:08:34.008Z,33.42
2022-10-14T09:11:03.649Z,31.85
2022-10-14T09:13:36.447Z,30.70
2022-10-14T09:16:09.167Z,29.92
2022-10-14T09:18:40.360Z,29.55
2022-10-14T09:21:51.531Z,24.85
2022-10-14T09:24:22.969Z,24.17
2022-10-14T09:29:31.507Z,10.05
2022-10-14T09:32:02.515Z,8.35
2022-10-14T09:34:33.816Z,10.10
2022-10-14T09:37:25.204Z,9.52
2022-10-14T09:39:55.378Z,6.20
2022-10-14T09:42:28.777Z,5.10
2022-10-14T09:45:10.599Z,5.05
2022-10-14T09:47:46.992Z,4.10
2022-10-14T09:50:26.943Z,3.05
2022-10-14T09:53:01.543Z,4.00
2022-10-14T09:55:30.746Z,5.50
2022-10-14T09:58:17.164Z,3.80
2022-10-14T10:00:47.469Z,3.10
2022-10-14T10:03:26.626Z,2.50
2022-10-14T10:06:02.389Z,2.42
2022-10-14T10:08:30.760Z,2.40
2022-10-14T10:11:05.484Z,2.42
2022-10-14T10:13:44.510Z,2.38
2022-10-14T10:16:22.018Z,2.30
2022-10-14T10:18:50.469Z,2.00
2022-10-14T10:21:21.101Z,1.67
2022-10-14T10:23:55.830Z,1.30
2022-10-14T10:26:30.598Z,1.60
2022-10-14T10:29:02.670Z,2.10
2022-10-14T10:31:51.264Z,2.00
2022-10-14T10:34:51.908Z,2.53
2022-10-14T10:37:31.321Z,2.60
2022-10-14T10:40:27.720Z,2.15
2022-10-14T10:43:18.584Z,1.60
2022-10-14T10:46:00.346Z,1.50
2022-10-14T10:48:34.665Z,2.03
2022-10-14T10:51:07.942Z,2.30
2022-10-14T10:53:50.934Z,1.90
2022-10-14T10:56:33.696Z,1.60
2022-10-14T10:59:35.266Z,1.35
2022-10-14T11:02:47.981Z,1.60
2022-10-14T11:05:23.465Z,1.80
2022-10-14T11:08:14.680Z,1.30
2022-10-14T11:11:11.635Z,1.38
2022-10-14T11:13:47.082Z,3.42
2022-10-14T11:16:23.870Z,1.70
2022-10-14T11:19:02.881Z,1.30
2022-10-14T11:21:39.718Z,1.52
2022-10-14T11:27:00.669Z,3.08
2022-10-14T11:29:55.193Z,4.03
2022-10-14T11:32:27.495Z,1.70
2022-10-14T11:35:13.538Z,2.08
2022-10-14T11:37:53.661Z,2.35
2022-10-14T11:40:28.818Z,2.42
2022-10-14T11:43:14.972Z,2.22
2022-10-14T11:45:48.558Z,2.08
2022-10-14T11:48:25.326Z,2.00
2022-10-14T11:50:59.743Z,2.00
2022-10-14T11:53:39.685Z,2.00
2022-10-14T11:56:18.909Z,2.08
2022-10-14T11:58:49.297Z,1.60
2022-10-14T12:01:22.257Z,2.00
2022-10-14T12:03:58.681Z,1.50
2022-10-14T12:06:34.414Z,1.45
2022-10-14T12:09:05.456Z,1.60
2022-10-14T12:11:38.949Z,1.25
2022-10-14T12:14:12.425Z,1.88
2022-10-14T12:16:44.278Z,2.70
2022-10-14T12:19:14.638Z,2.28
2022-10-14T12:21:51.436Z,3.30
2022-10-14T12:24:22.754Z,3.20
2022-10-14T12:26:53.478Z,4.07
2022-10-14T12:29:23.585Z,3.63
2022-10-14T12:32:08.252Z,4.47
2022-10-14T12:34:38.543Z,5.05
2022-10-14T12:37:50.386Z,4.53
2022-10-14T12:40:29.753Z,5.13
2022-10-14T12:43:15.461Z,4.85
2022-10-14T12:46:01.545Z,5.07
2022-10-14T12:48:33.531Z,5.95
2022-10-14T12:51:13.397Z,6.45
2022-10-14T12:54:04.986Z,6.57
2022-10-14T12:56:37.345Z,5.15
2022-10-14T12:59:08.806Z,4.70
2022-10-14T13:01:37.671Z,4.90
2022-10-14T13:04:08.867Z,5.68
2022-10-14T13:06:40.159Z,5.75
2022-10-14T13:09:42.561Z,6.07
2022-10-14T13:12:43.940Z,6.43
2022-10-14T13:15:35.374Z,6.15
2022-10-14T13:18:36.533Z,5.30
2022-10-14T13:21:05.721Z,6.55
2022-10-14T13:23:40.368Z,5.53
2022-10-14T13:26:24.277Z,5.53
2022-10-14T13:29:12.497Z,5.10
2022-10-14T13:31:49.157Z,5.70
2022-10-14T13:34:37.404Z,4.82
2022-10-14T13:37:29.193Z,5.43
2022-10-14T13:39:57.890Z,6.15
2022-10-14T13:42:31.745Z,6.00
2022-10-14T13:45:06.662Z,5.70
2022-10-14T13:47:36.320Z,6.50
2022-10-14T13:50:05.682Z,6.35
2022-10-14T13:52:35.541Z,13.20
2022-10-14T13:55:15.222Z,6.65
2022-10-14T13:58:10.777Z,5.80
2022-10-14T14:00:42.748Z,5.68
2022-10-14T14:03:22.569Z,6.30
2022-10-14T14:05:51.336Z,6.78
2022-10-14T14:08:41.442Z,6.30
2022-10-14T14:11:16.822Z,6.28
2022-10-14T14:14:00.322Z,5.68
2022-10-14T14:16:33.072Z,5.82
2022-10-14T14:19:10.050Z,5.97
2022-10-14T14:21:39.037Z,6.45
2022-10-14T14:24:17.584Z,6.68
2022-10-14T14:26:46.632Z,6.32
2022-10-14T14:29:28.444Z,6.30
2022-10-14T14:32:07.234Z,6.20
2022-10-14T14:34:38.127Z,7.63
2022-10-14T14:40:00.091Z,8.88
2022-10-14T14:42:31.847Z,8.20
2022-10-14T14:45:05.287Z,9.48
2022-10-14T14:47:34.082Z,9.43
2022-10-14T14:50:29.102Z,10.73
2022-10-14T14:52:53.513Z,10.60
2022-10-14T14:55:45.246Z,10.75
2022-10-14T14:58:25.494Z,10.93
2022-10-14T15:00:55.667Z,10.55
2022-10-14T15:03:26.280Z,11.23
2022-10-14T15:05:58.132Z,10.90
2022-10-14T15:08:28.535Z,11.90
2022-10-14T15:10:58.907Z,10.88
2022-10-14T15:13:30.308Z,10.57
2022-10-14T15:16:00.247Z,10.30
2022-10-14T15:18:29.685Z,11.10
2022-10-14T15:21:15.820Z,10.30
2022-10-14T15:24:00.396Z,10.25
2022-10-14T15:26:34.510Z,10.07
2022-10-14T15:29:18.672Z,11.40
2022-10-14T15:32:04.632Z,10.88
2022-10-14T15:34:32.941Z,9.27
2022-10-14T15:37:01.467Z,9.90
2022-10-14T15:39:29.751Z,10.20
2022-10-14T15:41:58.019Z,9.68
2022-10-14T15:44:26.226Z,10.00
2022-10-14T15:47:15.266Z,10.68
2022-10-14T15:49:44.783Z,10.52
2022-10-14T15:52:15.496Z,9.80
2022-10-14T15:54:45.739Z,10.20
2022-10-14T15:57:16.486Z,9.18
2022-10-14T15:59:45.208Z,10.27
2022-10-14T16:02:19.526Z,9.95
2022-10-14T16:05:07.006Z,10.30
2022-10-14T16:07:36.349Z,10.65
2022-10-14T16:10:05.735Z,10.63
2022-10-14T16:12:34.067Z,11.15
2022-10-14T16:15:03.038Z,10.63
2022-10-14T16:17:32.936Z,10.63
2022-10-14T16:20:01.312Z,11.40
2022-10-14T16:22:29.491Z,10.98
2022-10-14T16:24:57.703Z,10.80
2022-10-14T16:27:26.337Z,12.40
2022-10-14T16:29:54.599Z,13.93
2022-10-14T16:32:22.868Z,14.15
2022-10-14T16:34:52.916Z,14.07
2022-10-14T16:37:21.427Z,15.18
2022-10-14T16:39:50.171Z,15.23
2022-10-14T16:42:19.044Z,15.20
2022-10-14T16:44:47.309Z,12.98
2022-10-14T16:47:19.568Z,13.88
2022-10-14T16:49:51.853Z,14.45
2022-10-14T16:52:22.215Z,14.93
2022-10-14T16:54:50.843Z,14.07
2022-10-14T16:57:19.451Z,14.98
2022-10-14T16:59:47.662Z,14.68
2022-10-14T17:02:17.248Z,16.00
2022-10-14T17:04:46.646Z,15.63
2022-10-14T17:07:17.462Z,14.68
2022-10-14T17:09:46.941Z,15.30
2022-10-14T17:12:15.253Z,15.98
2022-10-14T17:14:43.971Z,14.98
2022-10-14T17:17:12.485Z,17.15
2022-10-14T17:19:40.850Z,16.30
2022-10-14T17:22:08.957Z,17.55
2022-10-14T17:24:37.156Z,16.58
2022-10-14T17:27:06.824Z,18.05
2022-10-14T17:29:35.177Z,19.38
2022-10-14T17:32:03.316Z,19.15
2022-10-14T17:34:31.838Z,19.67
2022-10-14T17:37:00.581Z,19.75
2022-10-14T17:39:29.881Z,18.50
2022-10-14T17:41:58.716Z,19.73
2022-10-14T17:44:28.887Z,19.38
2022-10-14T17:46:59.281Z,19.83
2022-10-14T17:49:27.436Z,20.75
2022-10-14T17:51:55.566Z,23.63
2022-10-14T17:54:24.015Z,22.80
2022-10-14T17:56:52.343Z,24.10
2022-10-14T17:59:20.747Z,24.40
2022-10-14T18:02:02.149Z,26.83
2022-10-14T18:04:32.606Z,38.97
2022-10-14T18:07:01.243Z,30.05
2022-10-14T18:09:29.646Z,28.88
2022-10-14T18:12:13.423Z,36.63
2022-10-14T18:14:42.085Z,33.05
2022-10-14T18:17:13.081Z,46.22
2022-10-14T18:19:41.864Z,36.28
2022-10-14T18:22:11.233Z,34.25
2022-10-14T18:24:39.739Z,51.72
2022-10-14T18:27:08.666Z,34.85
2022-10-14T18:29:36.981Z,28.42
2022-10-14T18:32:05.493Z,24.65
2022-10-14T18:34:35.212Z,23.52
2022-10-14T18:37:03.428Z,25.90
2022-10-14T18:39:31.596Z,26.15
2022-10-14T18:41:59.890Z,24.27
2022-10-14T18:44:28.202Z,24.13
2022-10-14T18:46:56.864Z,24.07
2022-10-14T18:49:25.221Z,24.50
2022-10-14T18:51:55.317Z,24.40
2022-10-14T18:54:24.941Z,21.77
2022-10-14T18:56:54.810Z,22.15
2022-10-14T18:59:24.395Z,23.67
2022-10-14T19:01:53.579Z,23.20
2022-10-14T19:04:23.153Z,23.98
2022-10-14T19:06:51.876Z,28.63
2022-10-14T19:09:24.868Z,27.38
2022-10-14T19:11:53.828Z,24.73
2022-10-14T19:14:22.494Z,25.05
2022-10-14T19:16:50.823Z,23.33
2022-10-14T19:19:20.453Z,22.55
2022-10-14T19:21:54.017Z,23.38
2022-10-14T19:24:23.612Z,23.15
2022-10-14T19:26:54.274Z,24.05
2022-10-14T19:29:22.554Z,22.33
2022-10-14T19:31:51.558Z,24.15
2022-10-14T19:34:19.873Z,23.92
2022-10-14T19:36:48.512Z,23.52
2022-10-14T19:39:18.898Z,23.60
2022-10-14T19:41:48.552Z,24.45
2022-10-14T19:44:17.651Z,24.70
2022-10-14T19:46:46.650Z,23.58
2022-10-14T19:49:16.170Z,23.85
2022-10-14T19:51:44.656Z,22.27
2022-10-14T19:54:13.655Z,22.05
2022-10-14T19:56:42.076Z,21.92
2022-10-14T19:59:13.496Z,22.45
2022-10-14T20:01:41.968Z,21.95
2022-10-14T20:04:10.460Z,21.55
2022-10-14T20:06:40.093Z,20.60
2022-10-14T20:09:10.026Z,21.80
2022-10-14T20:11:38.375Z,20.60
2022-10-14T20:14:06.697Z,15.82
2022-10-14T20:16:36.430Z,17.80
2022-10-14T20:19:04.730Z,18.20
2022-10-14T20:21:33.063Z,18.80
2022-10-14T20:24:01.388Z,18.05
2022-10-14T20:26:29.791Z,17.83
2022-10-14T20:28:58.014Z,18.50
2022-10-14T20:31:26.411Z,17.42
2022-10-14T20:33:57.813Z,18.08
2022-10-14T20:36:25.995Z,18.45
2022-10-14T20:38:54.413Z,18.80
2022-10-14T20:41:27.094Z,17.40
2022-10-14T20:43:56.422Z,18.15
2022-10-14T20:46:25.299Z,17.55
2022-10-14T20:48:59.164Z,16.88
2022-10-14T20:51:27.684Z,17.48
2022-10-14T20:54:01.828Z,16.70
2022-10-14T20:56:33.514Z,16.73
2022-10-14T20:59:03.362Z,16.25
2022-10-14T21:01:31.869Z,17.17
2022-10-14T21:04:04.013Z,17.23
2022-10-14T21:06:32.664Z,17.17
2022-10-14T21:09:01.024Z,17.05
2022-10-14T21:11:29.473Z,17.42
2022-10-14T21:13:58.866Z,16.63
2022-10-14T21:16:28.853Z,17.70
2022-10-14T21:18:58.966Z,18.45
2022-10-14T21:21:33.901Z,18.50
2022-10-14T21:24:02.172Z,18.92
2022-10-14T21:26:31.258Z,18.20
2022-10-14T21:29:00.913Z,18.83
2022-10-14T21:31:29.172Z,19.33
2022-10-14T21:34:04.110Z,18.77
2022-10-14T21:36:34.969Z,19.92
2022-10-14T21:39:06.749Z,19.83
2022-10-14T21:41:35.870Z,20.70
2022-10-14T21:44:04.198Z,18.33
2022-10-14T21:46:32.650Z,19.00
2022-10-14T21:49:01.116Z,20.08
2022-10-14T21:51:30.714Z,20.35
2022-10-14T21:54:00.264Z,20.45
2022-10-14T21:56:28.890Z,19.67
2022-10-14T21:58:57.532Z,19.95
2022-10-14T22:01:27.814Z,20.15
2022-10-14T22:03:57.372Z,21.13
2022-10-14T22:06:25.775Z,19.83
2022-10-14T22:08:56.126Z,21.13
2022-10-14T22:11:28.126Z,21.52
2022-10-14T22:13:57.245Z,19.70
2022-10-14T22:16:28.861Z,21.08
2022-10-14T22:18:59.250Z,22.65
2022-10-14T22:21:29.788Z,20.17
2022-10-14T22:23:58.645Z,20.27
2022-10-14T22:26:29.994Z,21.77
2022-10-14T22:29:00.031Z,21.42
2022-10-14T22:31:29.128Z,24.13
2022-10-14T22:33:57.434Z,23.33
2022-10-14T22:36:28.897Z,24.10
2022-10-14T22:38:58.281Z,23.73
2022-10-14T22:41:32.358Z,24.27
2022-10-14T22:44:02.481Z,23.23
2022-10-14T22:46:31.968Z,22.83
2022-10-14T22:49:01.747Z,21.83
2022-10-14T22:51:31.238Z,21.45
2022-10-14T22:53:59.630Z,21.67
2022-10-14T22:56:31.405Z,22.75
2022-10-14T22:59:00.816Z,23.48
2022-10-14T23:01:29.977Z,23.50
2022-10-14T23:03:59.477Z,23.77
2022-10-14T23:06:28.983Z,22.25
2022-10-14T23:08:57.658Z,23.05
2022-10-14T23:11:26.412Z,23.65
2022-10-14T23:13:55.805Z,24.42
2022-10-14T23:16:25.521Z,21.80
2022-10-14T23:18:54.610Z,21.42
2022-10-14T23:21:24.524Z,23.17
2022-10-14T23:23:53.643Z,24.05
2022-10-14T23:26:23.471Z,23.75
2022-10-14T23:28:53.038Z,23.10
2022-10-14T23:31:24.334Z,23.05
2022-10-14T23:33:53.381Z,20.85
2022-10-14T23:36:23.008Z,20.23
2022-10-14T23:38:52.488Z,19.90
2022-10-14T23:41:23.708Z,18.98
2022-10-14T23:43:52.921Z,18.10
2022-10-14T23:46:23.098Z,17.02
2022-10-14T23:49:01.181Z,15.60
2022-10-14T23:51:40.431Z,15.55
2022-10-14T23:54:08.932Z,14.52
2022-10-14T23:56:37.158Z,13.80
2022-10-14T23:59:05.582Z,12.88
